createdAt,value
2022-10-15T00:00:52.191Z,11.07
2022-10-15T00:03:31.124Z,12.88
2022-10-15T00:05:58.109Z,11.38
2022-10-15T00:08:25.485Z,10.88
2022-10-15T00:10:52.467Z,10.60
2022-10-15T00:13:19.430Z,11.85
2022-10-15T00:15:46.621Z,15.27
2022-10-15T00:18:13.939Z,12.40
2022-10-15T00:20:42.335Z,9.18
2022-10-15T00:23:09.520Z,7.80
2022-10-15T00:25:36.550Z,12.60
2022-10-15T00:28:03.658Z,8.05
2022-10-15T00:30:30.936Z,9.45
2022-10-15T00:32:57.866Z,8.20
2022-10-15T00:35:24.812Z,11.45
2022-10-15T00:37:52.280Z,9.82
2022-10-15T00:40:20.157Z,9.65
2022-10-15T00:42:47.167Z,11.40
2022-10-15T00:45:15.776Z,8.77
2022-10-15T00:47:49.560Z,14.10
2022-10-15T00:50:25.843Z,13.73
2022-10-15T00:52:52.767Z,12.57
2022-10-15T00:55:29.218Z,11.20
2022-10-15T00:57:59.009Z,12.25
2022-10-15T01:00:26.451Z,12.68
2022-10-15T01:02:53.385Z,13.90
2022-10-15T01:05:21.200Z,14.90
2022-10-15T01:07:48.429Z,12.55
2022-10-15T01:10:17.104Z,11.77
2022-10-15T01:12:52.312Z,12.38
2022-10-15T01:15:39.658Z,12.95
2022-10-15T01:18:14.875Z,13.55
2022-10-15T01:20:54.329Z,10.85
2022-10-15T01:23:43.100Z,17.50
2022-10-15T01:27:09.107Z,15.73
2022-10-15T01:30:04.052Z,13.70
2022-10-15T01:35:21.809Z,10.90
2022-10-15T01:37:54.140Z,12.38
2022-10-15T01:40:33.606Z,15.35
2022-10-15T01:43:04.850Z,16.00
2022-10-15T01:45:44.441Z,15.65
2022-10-15T01:48:13.140Z,18.52
2022-10-15T01:50:46.631Z,16.35
2022-10-15T01:53:26.695Z,19.15
2022-10-15T01:55:59.163Z,20.27
2022-10-15T01:58:27.939Z,25.60
2022-10-15T02:00:57.310Z,21.83
2022-10-15T02:03:24.555Z,20.15
2022-10-15T02:06:04.010Z,19.58
2022-10-15T02:08:53.014Z,20.67
2022-10-15T02:11:20.468Z,19.30
2022-10-15T02:14:09.234Z,20.50
2022-10-15T02:17:15.544Z,24.08
2022-10-15T02:20:07.071Z,20.85
2022-10-15T02:22:50.551Z,24.75
2022-10-15T02:25:24.650Z,17.45
2022-10-15T02:27:54.042Z,20.05
2022-10-15T02:30:21.435Z,22.15
2022-10-15T02:32:53.465Z,18.80
2022-10-15T02:35:22.600Z,20.30
2022-10-15T02:37:52.077Z,21.67
2022-10-15T02:40:23.203Z,21.17
2022-10-15T02:42:52.183Z,18.05
2022-10-15T02:45:20.215Z,22.73
2022-10-15T02:47:47.309Z,18.70
2022-10-15T02:50:14.703Z,15.93
2022-10-15T02:52:41.746Z,19.05
2022-10-15T02:55:09.267Z,17.10
2022-10-15T02:57:36.573Z,17.95
2022-10-15T03:00:05.276Z,16.58
2022-10-15T03:02:32.222Z,23.33
2022-10-15T03:04:59.428Z,22.42
2022-10-15T03:07:26.686Z,19.35
2022-10-15T03:09:54.021Z,19.45
2022-10-15T03:12:23.444Z,20.35
2022-10-15T03:14:50.429Z,24.35
2022-10-15T03:17:17.651Z,26.88
2022-10-15T03:19:44.968Z,26.90
2022-10-15T03:22:11.899Z,19.20
2022-10-15T03:24:38.899Z,20.83
2022-10-15T03:27:06.093Z,21.50
2022-10-15T03:29:33.113Z,16.20
2022-10-15T03:32:00.056Z,14.63
2022-10-15T03:34:27.284Z,16.85
2022-10-15T03:36:54.342Z,16.80
2022-10-15T03:39:21.355Z,19.20
2022-10-15T03:41:48.673Z,19.48
2022-10-15T03:44:15.673Z,16.98
2022-10-15T03:46:42.685Z,21.83
2022-10-15T03:49:09.899Z,18.23
2022-10-15T03:51:37.133Z,15.73
2022-10-15T03:54:04.359Z,19.10
2022-10-15T03:56:31.553Z,24.80
2022-10-15T03:58:58.558Z,14.77
2022-10-15T04:01:26.420Z,12.57
2022-10-15T04:03:53.821Z,17.20
2022-10-15T04:06:21.374Z,17.15
2022-10-15T04:08:48.430Z,17.75
2022-10-15T04:11:15.784Z,17.45
2022-10-15T04:13:42.884Z,20.85
2022-10-15T04:16:09.979Z,18.75
2022-10-15T04:18:37.614Z,22.38
2022-10-15T04:21:04.666Z,21.27
2022-10-15T04:23:31.662Z,19.10
2022-10-15T04:28:29.619Z,18.45
2022-10-15T04:31:00.790Z,23.50
2022-10-15T04:33:28.387Z,18.25
2022-10-15T04:36:05.275Z,19.85
2022-10-15T04:38:34.000Z,16.48
2022-10-15T04:41:09.817Z,21.77
2022-10-15T04:43:37.819Z,25.67
2022-10-15T04:46:07.276Z,28.10
2022-10-15T04:48:37.680Z,24.10
2022-10-15T04:51:10.182Z,22.02
2022-10-15T04:53:37.332Z,22.85
2022-10-15T04:56:07.205Z,24.13
2022-10-15T04:58:36.127Z,22.92
2022-10-15T05:01:12.333Z,25.70
2022-10-15T05:03:44.163Z,24.52
2022-10-15T05:06:19.197Z,25.58
2022-10-15T05:08:51.505Z,28.00
2022-10-15T05:11:21.271Z,22.15
2022-10-15T05:13:49.412Z,29.58
2022-10-15T05:16:26.945Z,24.15
2022-10-15T05:19:05.910Z,23.08
2022-10-15T05:21:35.469Z,24.58
2022-10-15T05:24:05.468Z,27.35
2022-10-15T05:26:33.056Z,26.52
2022-10-15T05:29:00.438Z,24.58
2022-10-15T05:31:35.693Z,35.30
2022-10-15T05:34:34.966Z,26.75
2022-10-15T05:37:02.631Z,24.67
2022-10-15T05:39:29.630Z,26.15
2022-10-15T05:41:58.576Z,30.90
2022-10-15T05:44:26.952Z,23.52
2022-10-15T05:46:54.007Z,30.33
2022-10-15T05:49:29.697Z,32.53
2022-10-15T05:54:26.307Z,27.58
2022-10-15T05:56:53.868Z,37.75
2022-10-15T05:59:30.946Z,44.13
2022-10-15T06:01:57.965Z,30.40
2022-10-15T06:04:25.234Z,32.15
2022-10-15T06:06:52.232Z,26.83
2022-10-15T06:09:19.289Z,26.10
2022-10-15T06:11:48.196Z,27.40
2022-10-15T06:14:15.515Z,27.88
2022-10-15T06:16:42.628Z,32.47
2022-10-15T06:19:09.987Z,27.38
2022-10-15T06:21:43.943Z,32.90
2022-10-15T06:24:11.473Z,25.42
2022-10-15T06:26:41.209Z,36.47
2022-10-15T06:29:08.288Z,31.98
2022-10-15T06:31:35.517Z,33.47
2022-10-15T06:34:02.730Z,39.13
2022-10-15T06:36:30.395Z,36.83
2022-10-15T06:38:58.963Z,38.20
2022-10-15T06:41:25.982Z,35.85
2022-10-15T06:43:56.140Z,32.50
2022-10-15T06:46:24.152Z,39.35
2022-10-15T06:48:51.977Z,37.88
2022-10-15T06:51:19.236Z,35.10
2022-10-15T06:53:47.347Z,37.53
2022-10-15T06:56:16.560Z,31.42
2022-10-15T06:58:48.436Z,40.17
2022-10-15T07:01:17.132Z,32.60
2022-10-15T07:03:44.334Z,36.00
2022-10-15T07:06:11.377Z,32.53
2022-10-15T07:08:38.709Z,31.40
2022-10-15T07:11:07.444Z,31.27
2022-10-15T07:13:34.507Z,29.73
2022-10-15T07:16:07.093Z,22.48
2022-10-15T07:18:37.592Z,25.40
2022-10-15T07:23:38.374Z,19.40
2022-10-15T07:26:07.072Z,19.02
2022-10-15T07:28:34.190Z,21.80
2022-10-15T07:31:07.564Z,14.52
2022-10-15T07:33:37.715Z,14.02
2022-10-15T07:36:10.470Z,16.90
2022-10-15T07:38:37.958Z,12.50
2022-10-15T07:41:07.981Z,10.32
2022-10-15T07:43:35.824Z,10.52
2022-10-15T07:46:06.617Z,11.73
2022-10-15T07:48:33.733Z,9.73
2022-10-15T07:51:06.490Z,7.88
2022-10-15T07:53:36.242Z,14.80
2022-10-15T07:56:11.626Z,12.98
2022-10-15T07:58:51.887Z,10.85
2022-10-15T08:01:22.602Z,16.45
2022-10-15T08:03:50.160Z,15.25
2022-10-15T08:06:20.849Z,8.73
2022-10-15T08:08:48.437Z,7.45
2022-10-15T08:11:17.204Z,9.68
2022-10-15T08:13:48.588Z,5.90
2022-10-15T08:16:20.125Z,7.07
2022-10-15T08:21:25.814Z,6.82
2022-10-15T08:23:53.397Z,6.22
2022-10-15T08:26:21.318Z,4.15
2022-10-15T08:28:48.457Z,4.15
2022-10-15T08:31:16.311Z,3.72
2022-10-15T08:33:46.785Z,5.20
2022-10-15T08:38:56.716Z,10.70
2022-10-15T08:41:32.914Z,4.68
2022-10-15T08:44:02.130Z,4.60
2022-10-15T08:46:56.728Z,5.10
2022-10-15T08:49:38.860Z,4.50
2022-10-15T08:52:21.041Z,5.20
2022-10-15T08:54:48.998Z,2.28
2022-10-15T08:58:17.093Z,3.83
2022-10-15T09:01:41.213Z,5.93
2022-10-15T09:04:39.437Z,3.45
2022-10-15T09:07:22.498Z,3.70
2022-10-15T09:10:01.642Z,6.30
2022-10-15T09:18:22.991Z,3.75
2022-10-15T09:20:50.833Z,4.88
2022-10-15T09:23:21.125Z,4.40
2022-10-15T09:26:04.233Z,4.47
2022-10-15T09:29:23.240Z,6.63
2022-10-15T09:34:33.594Z,4.57
2022-10-15T09:37:08.015Z,4.40
2022-10-15T09:39:44.873Z,3.85
2022-10-15T09:42:32.319Z,4.35
2022-10-15T09:45:13.785Z,3.95
2022-10-15T09:50:19.933Z,6.47
2022-10-15T09:53:28.760Z,3.10
2022-10-15T09:56:13.037Z,2.92
2022-10-15T09:58:53.380Z,7.20
2022-10-15T10:01:28.588Z,5.03
2022-10-15T10:04:28.011Z,3.63
2022-10-15T10:06:59.362Z,3.95
2022-10-15T10:09:52.279Z,6.85
2022-10-15T10:12:23.542Z,2.13
2022-10-15T10:14:58.215Z,1.65
2022-10-15T10:20:19.956Z,3.83
2022-10-15T10:22:56.939Z,2.28
2022-10-15T10:25:37.912Z,2.78
2022-10-15T10:28:11.978Z,3.33
2022-10-15T10:31:00.902Z,5.68
2022-10-15T10:33:36.232Z,5.75
2022-10-15T10:36:06.217Z,3.30
2022-10-15T10:38:34.698Z,6.00
2022-10-15T10:41:09.765Z,3.22
2022-10-15T10:43:39.398Z,4.35
2022-10-15T10:46:14.614Z,4.90
2022-10-15T10:48:52.853Z,5.63
2022-10-15T10:51:25.716Z,3.47
2022-10-15T10:53:53.242Z,8.45
2022-10-15T10:56:25.575Z,3.60
2022-10-15T10:58:59.057Z,4.38
2022-10-15T11:01:27.733Z,3.53
2022-10-15T11:03:57.616Z,3.05
2022-10-15T11:06:47.298Z,4.20
2022-10-15T11:09:34.888Z,3.70
2022-10-15T11:12:11.412Z,5.10
2022-10-15T11:14:55.412Z,7.50
2022-10-15T11:17:57.921Z,7.20
2022-10-15T11:20:49.811Z,5.00
2022-10-15T11:23:27.391Z,4.45
2022-10-15T11:29:23.844Z,5.22
2022-10-15T11:32:42.056Z,4.82
2022-10-15T11:35:52.341Z,3.88
2022-10-15T11:38:29.780Z,7.72
2022-10-15T11:41:44.323Z,3.78
2022-10-15T11:44:16.128Z,4.28
2022-10-15T11:47:22.606Z,4.25
2022-10-15T11:50:03.550Z,6.22
2022-10-15T11:52:52.242Z,6.57
2022-10-15T11:55:21.962Z,10.40
2022-10-15T11:57:54.430Z,6.07
2022-10-15T12:00:21.551Z,4.70
2022-10-15T12:02:51.108Z,4.35
2022-10-15T12:05:34.329Z,4.30
2022-10-15T12:11:06.073Z,2.78
2022-10-15T12:13:48.877Z,5.00
2022-10-15T12:16:16.192Z,4.45
2022-10-15T12:18:59.938Z,3.42
2022-10-15T12:21:35.392Z,3.67
2022-10-15T12:24:10.613Z,4.82
2022-10-15T12:26:38.029Z,5.93
2022-10-15T12:29:18.169Z,4.55
2022-10-15T12:31:48.827Z,5.82
2022-10-15T12:34:27.053Z,4.63
2022-10-15T12:37:06.691Z,4.22
2022-10-15T12:39:52.141Z,3.65
2022-10-15T12:42:33.475Z,3.47
2022-10-15T12:45:06.547Z,4.53
2022-10-15T12:47:57.876Z,3.30
2022-10-15T12:50:27.125Z,3.70
2022-10-15T12:53:01.906Z,4.43
2022-10-15T12:55:43.455Z,3.10
2022-10-15T13:00:56.637Z,4.10
2022-10-15T13:06:39.768Z,4.50
2022-10-15T13:09:13.269Z,4.88
2022-10-15T13:14:59.344Z,4.80
2022-10-15T13:17:26.798Z,1.60
2022-10-15T13:20:13.017Z,5.57
2022-10-15T13:22:40.657Z,6.05
2022-10-15T13:25:18.482Z,3.33
2022-10-15T13:27:54.779Z,3.50
2022-10-15T13:30:23.989Z,3.50
2022-10-15T13:32:56.021Z,3.33
2022-10-15T13:35:30.139Z,5.03
2022-10-15T13:37:59.301Z,4.65
2022-10-15T13:40:55.545Z,3.20
2022-10-15T13:43:30.045Z,4.88
2022-10-15T13:46:11.397Z,4.43
2022-10-15T13:48:44.945Z,5.50
2022-10-15T13:51:21.366Z,3.20
2022-10-15T13:53:54.185Z,3.20
2022-10-15T13:56:29.075Z,7.45
2022-10-15T13:59:00.410Z,4.55
2022-10-15T14:01:29.271Z,3.00
2022-10-15T14:04:01.588Z,5.78
2022-10-15T14:06:33.761Z,6.15
2022-10-15T14:09:30.672Z,3.70
2022-10-15T14:12:03.055Z,4.55
2022-10-15T14:14:50.411Z,3.10
2022-10-15T14:17:20.793Z,4.28
2022-10-15T14:20:22.170Z,6.88
2022-10-15T14:22:53.857Z,5.13
2022-10-15T14:25:25.407Z,5.55
2022-10-15T14:27:53.779Z,5.60
2022-10-15T14:30:39.810Z,6.43
2022-10-15T14:33:31.308Z,6.68
2022-10-15T14:36:16.468Z,5.80
2022-10-15T14:38:45.011Z,4.85
2022-10-15T14:41:32.217Z,3.30
2022-10-15T14:47:03.540Z,5.60
2022-10-15T14:49:40.060Z,6.97
2022-10-15T14:52:16.991Z,6.05
2022-10-15T14:57:49.411Z,8.93
2022-10-15T15:00:26.768Z,8.63
2022-10-15T15:02:59.555Z,7.53
2022-10-15T15:05:31.340Z,5.22
2022-10-15T15:08:06.442Z,14.73
2022-10-15T15:10:34.254Z,4.72
2022-10-15T15:13:04.125Z,8.52
2022-10-15T15:15:36.561Z,14.70
2022-10-15T15:18:03.671Z,17.85
2022-10-15T15:20:32.545Z,9.70
2022-10-15T15:23:00.397Z,6.45
2022-10-15T15:25:33.805Z,6.63
2022-10-15T15:28:02.246Z,9.07
2022-10-15T15:30:31.970Z,8.93
2022-10-15T15:33:01.026Z,7.22
2022-10-15T15:35:41.553Z,7.32
2022-10-15T15:38:14.488Z,14.75
2022-10-15T15:40:44.652Z,14.45
2022-10-15T15:43:18.353Z,15.18
2022-10-15T15:45:49.460Z,15.20
2022-10-15T15:48:17.815Z,19.85
2022-10-15T15:50:47.170Z,16.40
2022-10-15T15:53:14.502Z,21.83
2022-10-15T15:55:56.648Z,19.55
2022-10-15T15:58:40.042Z,19.08
2022-10-15T16:01:08.481Z,18.02
2022-10-15T16:03:36.081Z,26.23
2022-10-15T16:06:06.558Z,21.05
2022-10-15T16:08:39.000Z,16.10
2022-10-15T16:11:09.900Z,13.82
2022-10-15T16:13:39.903Z,25.65
2022-10-15T16:16:07.915Z,23.77
2022-10-15T16:18:35.206Z,17.52
2022-10-15T16:21:02.280Z,19.05
2022-10-15T16:23:30.766Z,24.85
2022-10-15T16:26:04.057Z,18.90
2022-10-15T16:28:32.676Z,25.90
2022-10-15T16:31:26.436Z,31.88
2022-10-15T16:34:27.075Z,27.23
2022-10-15T16:36:57.687Z,29.35
2022-10-15T16:39:25.821Z,27.08
2022-10-15T16:41:56.361Z,33.05
2022-10-15T16:44:23.504Z,29.67
2022-10-15T16:46:51.848Z,24.15
2022-10-15T16:49:19.141Z,28.25
2022-10-15T16:51:48.280Z,35.85
2022-10-15T16:54:23.214Z,50.85
2022-10-15T16:56:52.882Z,37.22
2022-10-15T17:00:05.303Z,31.13
2022-10-15T17:02:33.707Z,32.35
2022-10-15T17:05:00.880Z,36.25
2022-10-15T17:07:29.793Z,40.97
2022-10-15T17:09:57.393Z,30.38
2022-10-15T17:12:35.338Z,42.72
2022-10-15T17:15:02.678Z,39.97
2022-10-15T17:17:34.688Z,30.70
2022-10-15T17:20:06.256Z,34.63
2022-10-15T17:22:38.188Z,25.27
2022-10-15T17:25:09.743Z,31.33
2022-10-15T17:27:39.783Z,34.05
2022-10-15T17:30:10.129Z,28.95
2022-10-15T17:32:54.438Z,26.58
2022-10-15T17:35:22.099Z,33.88
2022-10-15T17:37:50.031Z,23.55
2022-10-15T17:40:20.366Z,27.17
2022-10-15T17:42:47.713Z,30.23
2022-10-15T17:45:22.046Z,28.20
2022-10-15T17:47:55.159Z,27.98
2022-10-15T17:50:27.085Z,32.03
2022-10-15T17:52:54.563Z,28.90
2022-10-15T17:55:24.797Z,31.05
2022-10-15T17:57:52.596Z,24.75
2022-10-15T18:00:24.054Z,32.42
2022-10-15T18:02:51.480Z,32.75
2022-10-15T18:05:19.452Z,30.48
2022-10-15T18:07:49.876Z,37.22
2022-10-15T18:10:18.410Z,39.47
2022-10-15T18:12:47.531Z,30.02
2022-10-15T18:15:15.909Z,37.80
2022-10-15T18:17:43.344Z,39.65
2022-10-15T18:20:10.950Z,34.90
2022-10-15T18:22:38.556Z,34.55
2022-10-15T18:25:06.972Z,41.10
2022-10-15T18:27:34.488Z,39.72
2022-10-15T18:30:02.342Z,34.05
2022-10-15T18:32:29.723Z,27.65
2022-10-15T18:34:58.164Z,27.55
2022-10-15T18:37:27.158Z,32.00
2022-10-15T18:39:55.105Z,36.13
2022-10-15T18:42:23.607Z,31.25
2022-10-15T18:44:52.585Z,29.20
2022-10-15T18:47:19.777Z,35.28
2022-10-15T18:49:47.215Z,30.67
2022-10-15T18:52:34.971Z,35.80
2022-10-15T18:55:03.693Z,34.05
2022-10-15T18:57:37.589Z,38.33
2022-10-15T19:00:06.314Z,33.92
2022-10-15T19:05:55.863Z,35.95
2022-10-15T19:10:55.960Z,29.85
2022-10-15T19:13:25.686Z,41.60
2022-10-15T19:15:53.020Z,37.25
2022-10-15T19:18:21.417Z,33.80
2022-10-15T19:20:48.755Z,32.50
2022-10-15T19:23:38.629Z,31.13
2022-10-15T19:26:48.622Z,33.30
2022-10-15T19:29:23.081Z,26.50
2022-10-15T19:31:52.579Z,34.08
2022-10-15T19:36:56.582Z,29.45
2022-10-15T19:39:28.957Z,31.27
2022-10-15T19:42:19.067Z,34.58
2022-10-15T19:45:01.376Z,33.95
2022-10-15T19:47:34.945Z,33.10
2022-10-15T19:50:02.023Z,36.17
2022-10-15T19:52:29.650Z,26.42
2022-10-15T19:54:59.850Z,29.45
2022-10-15T19:57:30.148Z,28.45
2022-10-15T19:59:59.211Z,31.83
2022-10-15T20:04:55.926Z,29.50
2022-10-15T20:07:27.415Z,32.03
2022-10-15T20:09:55.707Z,31.73
2022-10-15T20:12:23.295Z,27.98
2022-10-15T20:14:51.052Z,31.20
2022-10-15T20:17:19.159Z,26.67
2022-10-15T20:19:50.948Z,29.73
2022-10-15T20:22:27.877Z,29.23
2022-10-15T20:24:55.167Z,29.90
2022-10-15T20:27:30.830Z,30.52
2022-10-15T20:30:00.005Z,27.35
2022-10-15T20:32:34.702Z,31.75
2022-10-15T20:35:25.654Z,25.77
2022-10-15T20:37:53.934Z,31.20
2022-10-15T20:40:21.900Z,23.95
2022-10-15T20:42:51.029Z,29.38
2022-10-15T20:45:22.247Z,26.70
2022-10-15T20:47:53.767Z,23.23
2022-10-15T20:50:26.016Z,32.45
2022-10-15T20:52:55.733Z,25.35
2022-10-15T20:55:23.778Z,26.42
2022-10-15T20:57:51.625Z,23.77
2022-10-15T21:00:18.863Z,22.98
2022-10-15T21:02:48.029Z,25.85
2022-10-15T21:07:42.628Z,25.30
2022-10-15T21:10:09.934Z,21.85
2022-10-15T21:12:38.821Z,23.77
2022-10-15T21:15:06.670Z,21.42
2022-10-15T21:17:34.414Z,25.90
2022-10-15T21:20:01.945Z,25.75
2022-10-15T21:22:29.262Z,25.15
2022-10-15T21:24:59.375Z,23.45
2022-10-15T21:27:32.873Z,21.92
2022-10-15T21:30:00.093Z,25.00
2022-10-15T21:32:27.834Z,25.27
2022-10-15T21:34:55.104Z,30.15
2022-10-15T21:37:22.461Z,31.10
2022-10-15T21:39:49.665Z,27.73
2022-10-15T21:42:17.239Z,33.03
2022-10-15T21:44:44.231Z,27.40
2022-10-15T21:47:14.355Z,27.90
2022-10-15T21:49:42.352Z,24.75
2022-10-15T21:52:10.181Z,24.08
2022-10-15T21:54:38.198Z,20.67
2022-10-15T21:57:06.373Z,23.52
2022-10-15T21:59:33.481Z,29.13
2022-10-15T22:02:01.108Z,23.10
2022-10-15T22:04:29.444Z,29.45
2022-10-15T22:06:56.624Z,29.48
2022-10-15T22:09:23.665Z,24.05
2022-10-15T22:11:51.096Z,28.05
2022-10-15T22:14:18.139Z,29.65
2022-10-15T22:16:45.488Z,23.67
2022-10-15T22:19:16.256Z,26.85
2022-10-15T22:21:44.440Z,29.90
2022-10-15T22:24:17.702Z,25.00
2022-10-15T22:26:54.140Z,29.77
2022-10-15T22:29:24.204Z,26.02
2022-10-15T22:31:52.807Z,27.25
2022-10-15T22:34:21.046Z,23.60
2022-10-15T22:36:48.768Z,25.13
2022-10-15T22:39:17.618Z,27.70
2022-10-15T22:41:46.972Z,23.55
2022-10-15T22:44:16.534Z,33.20
2022-10-15T22:46:46.615Z,23.00
2022-10-15T22:49:14.386Z,21.38
2022-10-15T22:51:42.481Z,23.05
2022-10-15T22:54:09.457Z,24.85
2022-10-15T22:56:38.275Z,23.30
2022-10-15T22:59:05.970Z,23.73
2022-10-15T23:01:37.491Z,29.25
2022-10-15T23:04:07.095Z,27.73
2022-10-15T23:06:37.362Z,22.27
2022-10-15T23:09:06.716Z,26.20
2022-10-15T23:11:41.347Z,24.70
2022-10-15T23:14:18.551Z,24.17
2022-10-15T23:16:49.386Z,23.15
2022-10-15T23:19:19.995Z,26.17
2022-10-15T23:21:56.873Z,26.48
2022-10-15T23:24:32.982Z,23.83
2022-10-15T23:27:01.203Z,25.08
2022-10-15T23:29:29.174Z,23.98
2022-10-15T23:31:57.661Z,31.20
2022-10-15T23:34:28.020Z,25.83
2022-10-15T23:36:55.815Z,24.40
2022-10-15T23:39:26.082Z,24.42
2022-10-15T23:41:54.639Z,24.95
2022-10-15T23:44:25.489Z,23.55
2022-10-15T23:46:56.763Z,27.30
2022-10-15T23:49:23.876Z,22.90
2022-10-15T23:51:51.579Z,24.80
2022-10-15T23:54:20.978Z,24.35
2022-10-15T23:56:49.522Z,28.23
2022-10-15T23:59:17.696Z,24.27
